Terminal Aerodrome Forecast
Issued by NWS Albany, NY

Home | Current Version | Previous Version | Text Only | Print | Product List | Glossary On
Versions: 1 2 3 4 5 6 7 8 9 10 11 12 13 14 15 16 17 18 19 20 21 22 23 24 25 26 27 28 29 30 31
000
FTUS41 KALY 281158 CCA
TAFPOU
TAF COR
KPOU 281158Z 2812/2912 36009KT P6SM VCSH OVC025
      TEMPO 2815/2819 2SM -SHSN OVC015
     FM282300 34007KT P6SM OVC050
     FM290900 33005KT P6SM SCT050=

USA.gov is the U.S. government's official web portal to all federal, state and local government web resources and services.